sensor_id;sensor_type;location;lat;lon;timestamp;P1;durP1;ratioP1;P2;durP2;ratioP2
75289;SDS011;63883;48.996;20.804;2023-07-13T00:01:29;12.30;;;9.02;;
75289;SDS011;63883;48.996;20.804;2023-07-13T00:03:56;16.73;;;10.35;;
75289;SDS011;63883;48.996;20.804;2023-07-13T00:06:22;14.73;;;9.60;;
75289;SDS011;63883;48.996;20.804;2023-07-13T00:08:49;15.68;;;9.10;;
75289;SDS011;63883;48.996;20.804;2023-07-13T00:11:15;11.93;;;8.40;;
75289;SDS011;63883;48.996;20.804;2023-07-13T00:13:42;16.30;;;9.57;;
75289;SDS011;63883;48.996;20.804;2023-07-13T00:16:09;16.52;;;9.18;;
75289;SDS011;63883;48.996;20.804;2023-07-13T00:18:36;13.77;;;9.45;;
75289;SDS011;63883;48.996;20.804;2023-07-13T00:21:03;16.33;;;10.50;;
75289;SDS011;63883;48.996;20.804;2023-07-13T00:23:35;13.73;;;8.95;;
75289;SDS011;63883;48.996;20.804;2023-07-13T00:26:06;12.48;;;8.88;;
75289;SDS011;63883;48.996;20.804;2023-07-13T00:28:33;14.80;;;10.32;;
75289;SDS011;63883;48.996;20.804;2023-07-13T00:31:00;14.18;;;9.63;;
75289;SDS011;63883;48.996;20.804;2023-07-13T00:33:27;14.48;;;10.23;;
75289;SDS011;63883;48.996;20.804;2023-07-13T00:35:54;14.02;;;10.25;;
75289;SDS011;63883;48.996;20.804;2023-07-13T00:38:22;15.13;;;9.45;;
75289;SDS011;63883;48.996;20.804;2023-07-13T00:40:48;15.75;;;9.48;;
75289;SDS011;63883;48.996;20.804;2023-07-13T00:43:19;14.55;;;10.88;;
75289;SDS011;63883;48.996;20.804;2023-07-13T00:48:20;14.45;;;10.05;;
75289;SDS011;63883;48.996;20.804;2023-07-13T00:50:50;14.90;;;9.60;;
75289;SDS011;63883;48.996;20.804;2023-07-13T00:53:17;13.68;;;9.32;;
75289;SDS011;63883;48.996;20.804;2023-07-13T00:55:44;12.48;;;9.35;;
75289;SDS011;63883;48.996;20.804;2023-07-13T00:58:11;14.40;;;9.48;;
75289;SDS011;63883;48.996;20.804;2023-07-13T01:00:36;14.93;;;11.05;;
75289;SDS011;63883;48.996;20.804;2023-07-13T01:03:04;10.95;;;9.13;;
75289;SDS011;63883;48.996;20.804;2023-07-13T01:05:30;13.35;;;9.27;;
75289;SDS011;63883;48.996;20.804;2023-07-13T01:07:59;14.02;;;9.85;;
75289;SDS011;63883;48.996;20.804;2023-07-13T01:10:25;14.68;;;10.05;;
75289;SDS011;63883;48.996;20.804;2023-07-13T01:12:52;19.95;;;10.95;;
75289;SDS011;63883;48.996;20.804;2023-07-13T01:15:38;21.40;;;12.15;;
75289;SDS011;63883;48.996;20.804;2023-07-13T01:18:05;17.60;;;10.88;;
75289;SDS011;63883;48.996;20.804;2023-07-13T01:20:32;17.23;;;10.45;;
75289;SDS011;63883;48.996;20.804;2023-07-13T01:23:03;15.93;;;10.35;;
75289;SDS011;63883;48.996;20.804;2023-07-13T01:25:34;18.80;;;10.32;;
75289;SDS011;63883;48.996;20.804;2023-07-13T01:28:01;16.13;;;9.50;;
75289;SDS011;63883;48.996;20.804;2023-07-13T01:30:31;14.90;;;10.52;;
75289;SDS011;63883;48.996;20.804;2023-07-13T01:32:57;18.00;;;10.55;;
75289;SDS011;63883;48.996;20.804;2023-07-13T01:35:24;19.33;;;10.73;;
75289;SDS011;63883;48.996;20.804;2023-07-13T01:37:52;20.10;;;10.13;;
75289;SDS011;63883;48.996;20.804;2023-07-13T01:40:18;19.35;;;10.18;;
75289;SDS011;63883;48.996;20.804;2023-07-13T01:42:45;19.13;;;9.65;;
75289;SDS011;63883;48.996;20.804;2023-07-13T01:45:10;16.83;;;9.95;;
75289;SDS011;63883;48.996;20.804;2023-07-13T01:47:37;13.27;;;9.20;;
75289;SDS011;63883;48.996;20.804;2023-07-13T01:50:03;14.70;;;8.95;;
75289;SDS011;63883;48.996;20.804;2023-07-13T01:52:29;16.30;;;10.60;;
75289;SDS011;63883;48.996;20.804;2023-07-13T01:54:54;16.85;;;10.32;;
75289;SDS011;63883;48.996;20.804;2023-07-13T01:57:20;13.60;;;9.75;;
75289;SDS011;63883;48.996;20.804;2023-07-13T01:59:45;13.45;;;9.18;;
75289;SDS011;63883;48.996;20.804;2023-07-13T02:02:11;18.38;;;9.57;;
75289;SDS011;63883;48.996;20.804;2023-07-13T02:04:37;12.65;;;8.88;;
75289;SDS011;63883;48.996;20.804;2023-07-13T02:07:03;15.52;;;9.60;;
75289;SDS011;63883;48.996;20.804;2023-07-13T02:09:28;15.82;;;8.88;;
75289;SDS011;63883;48.996;20.804;2023-07-13T02:11:54;18.42;;;9.52;;
75289;SDS011;63883;48.996;20.804;2023-07-13T02:14:20;13.35;;;9.95;;
75289;SDS011;63883;48.996;20.804;2023-07-13T02:16:46;17.17;;;9.57;;
75289;SDS011;63883;48.996;20.804;2023-07-13T02:19:13;15.50;;;9.00;;
75289;SDS011;63883;48.996;20.804;2023-07-13T02:21:40;14.77;;;9.23;;
75289;SDS011;63883;48.996;20.804;2023-07-13T02:24:05;14.10;;;9.88;;
75289;SDS011;63883;48.996;20.804;2023-07-13T02:26:31;20.92;;;11.48;;
75289;SDS011;63883;48.996;20.804;2023-07-13T02:28:57;32.58;;;14.48;;
75289;SDS011;63883;48.996;20.804;2023-07-13T02:31:23;26.58;;;14.07;;
75289;SDS011;63883;48.996;20.804;2023-07-13T02:33:48;34.13;;;15.52;;
75289;SDS011;63883;48.996;20.804;2023-07-13T02:36:14;25.38;;;15.13;;
75289;SDS011;63883;48.996;20.804;2023-07-13T02:38:41;24.65;;;14.75;;
75289;SDS011;63883;48.996;20.804;2023-07-13T02:41:07;28.48;;;16.02;;
75289;SDS011;63883;48.996;20.804;2023-07-13T02:43:35;29.35;;;14.90;;
75289;SDS011;63883;48.996;20.804;2023-07-13T02:46:01;28.10;;;15.10;;
75289;SDS011;63883;48.996;20.804;2023-07-13T02:48:32;24.02;;;16.10;;
75289;SDS011;63883;48.996;20.804;2023-07-13T02:50:59;25.63;;;15.75;;
75289;SDS011;63883;48.996;20.804;2023-07-13T02:53:25;29.05;;;15.30;;
75289;SDS011;63883;48.996;20.804;2023-07-13T02:55:51;28.83;;;13.98;;
75289;SDS011;63883;48.996;20.804;2023-07-13T02:58:16;24.17;;;13.80;;
75289;SDS011;63883;48.996;20.804;2023-07-13T03:00:43;28.25;;;14.23;;
75289;SDS011;63883;48.996;20.804;2023-07-13T03:03:11;23.80;;;14.23;;
75289;SDS011;63883;48.996;20.804;2023-07-13T03:08:05;22.58;;;13.00;;
75289;SDS011;63883;48.996;20.804;2023-07-13T03:10:32;18.83;;;12.05;;
75289;SDS011;63883;48.996;20.804;2023-07-13T03:12:57;24.25;;;12.50;;
75289;SDS011;63883;48.996;20.804;2023-07-13T03:15:23;21.50;;;12.70;;
75289;SDS011;63883;48.996;20.804;2023-07-13T03:17:49;24.20;;;13.55;;
75289;SDS011;63883;48.996;20.804;2023-07-13T03:20:15;22.77;;;12.80;;
75289;SDS011;63883;48.996;20.804;2023-07-13T03:22:41;22.52;;;13.02;;
75289;SDS011;63883;48.996;20.804;2023-07-13T03:25:07;22.30;;;13.10;;
75289;SDS011;63883;48.996;20.804;2023-07-13T03:27:33;22.67;;;13.27;;
75289;SDS011;63883;48.996;20.804;2023-07-13T03:29:59;24.65;;;14.02;;
75289;SDS011;63883;48.996;20.804;2023-07-13T03:32:24;25.05;;;13.98;;
75289;SDS011;63883;48.996;20.804;2023-07-13T03:34:50;22.80;;;13.07;;
75289;SDS011;63883;48.996;20.804;2023-07-13T03:37:16;19.92;;;12.40;;
75289;SDS011;63883;48.996;20.804;2023-07-13T03:39:41;22.58;;;13.05;;
75289;SDS011;63883;48.996;20.804;2023-07-13T03:42:07;19.25;;;12.35;;
75289;SDS011;63883;48.996;20.804;2023-07-13T03:44:34;20.90;;;12.70;;
75289;SDS011;63883;48.996;20.804;2023-07-13T03:47:00;18.15;;;12.77;;
75289;SDS011;63883;48.996;20.804;2023-07-13T03:49:26;22.15;;;13.38;;
75289;SDS011;63883;48.996;20.804;2023-07-13T03:51:51;22.27;;;12.65;;
75289;SDS011;63883;48.996;20.804;2023-07-13T03:54:17;21.35;;;12.80;;
75289;SDS011;63883;48.996;20.804;2023-07-13T03:56:43;21.67;;;13.43;;
75289;SDS011;63883;48.996;20.804;2023-07-13T03:59:08;21.60;;;14.80;;
75289;SDS011;63883;48.996;20.804;2023-07-13T04:01:34;25.00;;;14.07;;
75289;SDS011;63883;48.996;20.804;2023-07-13T04:04:00;24.05;;;13.88;;
75289;SDS011;63883;48.996;20.804;2023-07-13T04:06:26;24.95;;;14.27;;
75289;SDS011;63883;48.996;20.804;2023-07-13T04:08:55;28.50;;;15.35;;
75289;SDS011;63883;48.996;20.804;2023-07-13T04:11:23;25.55;;;14.48;;
75289;SDS011;63883;48.996;20.804;2023-07-13T04:13:50;22.77;;;13.95;;
75289;SDS011;63883;48.996;20.804;2023-07-13T04:16:17;21.70;;;14.10;;
75289;SDS011;63883;48.996;20.804;2023-07-13T04:18:44;21.83;;;13.70;;
75289;SDS011;63883;48.996;20.804;2023-07-13T04:21:11;25.60;;;13.93;;
75289;SDS011;63883;48.996;20.804;2023-07-13T04:23:37;21.83;;;14.57;;
75289;SDS011;63883;48.996;20.804;2023-07-13T04:26:03;18.95;;;12.65;;
75289;SDS011;63883;48.996;20.804;2023-07-13T04:28:29;23.40;;;13.70;;
75289;SDS011;63883;48.996;20.804;2023-07-13T04:30:55;21.17;;;13.32;;
75289;SDS011;63883;48.996;20.804;2023-07-13T04:33:21;17.52;;;12.63;;
75289;SDS011;63883;48.996;20.804;2023-07-13T04:35:48;21.27;;;13.15;;
75289;SDS011;63883;48.996;20.804;2023-07-13T04:40:47;19.27;;;12.35;;
75289;SDS011;63883;48.996;20.804;2023-07-13T04:43:13;18.90;;;12.02;;
75289;SDS011;63883;48.996;20.804;2023-07-13T04:45:39;19.27;;;12.20;;
75289;SDS011;63883;48.996;20.804;2023-07-13T04:48:05;17.60;;;12.00;;
75289;SDS011;63883;48.996;20.804;2023-07-13T04:50:30;21.73;;;13.50;;
75289;SDS011;63883;48.996;20.804;2023-07-13T04:52:56;18.55;;;12.90;;
75289;SDS011;63883;48.996;20.804;2023-07-13T04:55:22;17.65;;;11.70;;
75289;SDS011;63883;48.996;20.804;2023-07-13T04:57:48;20.77;;;11.50;;
75289;SDS011;63883;48.996;20.804;2023-07-13T05:00:13;18.65;;;12.02;;
75289;SDS011;63883;48.996;20.804;2023-07-13T05:02:42;18.73;;;12.07;;
75289;SDS011;63883;48.996;20.804;2023-07-13T05:05:09;22.05;;;12.82;;
75289;SDS011;63883;48.996;20.804;2023-07-13T05:07:35;20.67;;;13.27;;
75289;SDS011;63883;48.996;20.804;2023-07-13T05:10:01;20.50;;;13.05;;
75289;SDS011;63883;48.996;20.804;2023-07-13T05:12:29;19.90;;;13.48;;
75289;SDS011;63883;48.996;20.804;2023-07-13T05:14:55;21.75;;;13.70;;
75289;SDS011;63883;48.996;20.804;2023-07-13T05:17:21;21.02;;;13.27;;
75289;SDS011;63883;48.996;20.804;2023-07-13T05:19:47;19.83;;;13.93;;
75289;SDS011;63883;48.996;20.804;2023-07-13T05:22:12;20.50;;;13.85;;
75289;SDS011;63883;48.996;20.804;2023-07-13T05:24:38;20.02;;;13.60;;
75289;SDS011;63883;48.996;20.804;2023-07-13T05:27:04;20.13;;;13.30;;
75289;SDS011;63883;48.996;20.804;2023-07-13T05:29:30;21.58;;;13.77;;
75289;SDS011;63883;48.996;20.804;2023-07-13T05:31:56;20.88;;;13.45;;
75289;SDS011;63883;48.996;20.804;2023-07-13T05:34:21;22.17;;;14.13;;
75289;SDS011;63883;48.996;20.804;2023-07-13T05:36:48;20.17;;;13.93;;
75289;SDS011;63883;48.996;20.804;2023-07-13T05:39:14;20.65;;;12.93;;
75289;SDS011;63883;48.996;20.804;2023-07-13T05:41:40;23.30;;;13.93;;
75289;SDS011;63883;48.996;20.804;2023-07-13T05:44:06;21.70;;;13.35;;
75289;SDS011;63883;48.996;20.804;2023-07-13T05:46:32;18.02;;;12.70;;
75289;SDS011;63883;48.996;20.804;2023-07-13T05:48:57;19.25;;;12.27;;
75289;SDS011;63883;48.996;20.804;2023-07-13T05:51:23;17.50;;;12.20;;
75289;SDS011;63883;48.996;20.804;2023-07-13T05:53:49;15.55;;;11.68;;
75289;SDS011;63883;48.996;20.804;2023-07-13T05:56:15;17.10;;;11.68;;
75289;SDS011;63883;48.996;20.804;2023-07-13T05:58:41;16.90;;;11.57;;
75289;SDS011;63883;48.996;20.804;2023-07-13T06:01:11;17.50;;;11.73;;
75289;SDS011;63883;48.996;20.804;2023-07-13T06:03:38;17.77;;;12.15;;
75289;SDS011;63883;48.996;20.804;2023-07-13T06:06:05;17.92;;;12.23;;
75289;SDS011;63883;48.996;20.804;2023-07-13T06:08:31;19.55;;;13.05;;
75289;SDS011;63883;48.996;20.804;2023-07-13T06:13:29;18.20;;;12.70;;
75289;SDS011;63883;48.996;20.804;2023-07-13T06:15:55;18.90;;;13.68;;
75289;SDS011;63883;48.996;20.804;2023-07-13T06:18:20;18.98;;;13.27;;
75289;SDS011;63883;48.996;20.804;2023-07-13T06:20:46;17.90;;;13.50;;
75289;SDS011;63883;48.996;20.804;2023-07-13T06:23:12;16.73;;;12.13;;
75289;SDS011;63883;48.996;20.804;2023-07-13T06:25:37;16.52;;;11.95;;
75289;SDS011;63883;48.996;20.804;2023-07-13T06:28:03;17.70;;;12.18;;
75289;SDS011;63883;48.996;20.804;2023-07-13T06:30:29;17.13;;;11.90;;
75289;SDS011;63883;48.996;20.804;2023-07-13T06:32:54;17.33;;;11.80;;
75289;SDS011;63883;48.996;20.804;2023-07-13T06:35:20;15.15;;;11.43;;
75289;SDS011;63883;48.996;20.804;2023-07-13T06:37:46;15.95;;;11.57;;
75289;SDS011;63883;48.996;20.804;2023-07-13T06:40:12;17.95;;;12.40;;
75289;SDS011;63883;48.996;20.804;2023-07-13T06:42:38;16.88;;;11.52;;
75289;SDS011;63883;48.996;20.804;2023-07-13T06:45:04;15.70;;;11.57;;
75289;SDS011;63883;48.996;20.804;2023-07-13T06:47:30;16.10;;;11.80;;
75289;SDS011;63883;48.996;20.804;2023-07-13T06:49:56;16.85;;;12.27;;
75289;SDS011;63883;48.996;20.804;2023-07-13T06:52:21;16.52;;;11.38;;
75289;SDS011;63883;48.996;20.804;2023-07-13T06:54:47;16.38;;;12.13;;
75289;SDS011;63883;48.996;20.804;2023-07-13T06:57:12;16.27;;;12.25;;
75289;SDS011;63883;48.996;20.804;2023-07-13T06:59:38;16.42;;;12.68;;
75289;SDS011;63883;48.996;20.804;2023-07-13T07:02:04;15.57;;;11.82;;
75289;SDS011;63883;48.996;20.804;2023-07-13T07:04:30;16.92;;;12.32;;
75289;SDS011;63883;48.996;20.804;2023-07-13T07:06:55;16.48;;;11.80;;
75289;SDS011;63883;48.996;20.804;2023-07-13T07:09:21;16.00;;;11.57;;
75289;SDS011;63883;48.996;20.804;2023-07-13T07:11:47;13.90;;;11.18;;
75289;SDS011;63883;48.996;20.804;2023-07-13T07:14:12;15.95;;;10.65;;
75289;SDS011;63883;48.996;20.804;2023-07-13T07:16:38;13.63;;;10.60;;
75289;SDS011;63883;48.996;20.804;2023-07-13T07:19:04;11.77;;;9.30;;
75289;SDS011;63883;48.996;20.804;2023-07-13T07:21:29;10.65;;;8.25;;
75289;SDS011;63883;48.996;20.804;2023-07-13T07:23:56;9.05;;;7.50;;
75289;SDS011;63883;48.996;20.804;2023-07-13T07:26:22;7.55;;;6.50;;
75289;SDS011;63883;48.996;20.804;2023-07-13T07:28:48;8.15;;;6.30;;
75289;SDS011;63883;48.996;20.804;2023-07-13T07:31:14;6.95;;;6.00;;
75289;SDS011;63883;48.996;20.804;2023-07-13T07:33:39;6.78;;;5.22;;
75289;SDS011;63883;48.996;20.804;2023-07-13T07:36:05;6.53;;;5.03;;
75289;SDS011;63883;48.996;20.804;2023-07-13T07:38:31;5.07;;;4.55;;
75289;SDS011;63883;48.996;20.804;2023-07-13T07:40:57;5.90;;;4.65;;
75289;SDS011;63883;48.996;20.804;2023-07-13T07:43:22;4.90;;;4.40;;
75289;SDS011;63883;48.996;20.804;2023-07-13T07:45:48;5.15;;;4.57;;
75289;SDS011;63883;48.996;20.804;2023-07-13T07:48:14;5.60;;;4.85;;
75289;SDS011;63883;48.996;20.804;2023-07-13T07:50:40;5.55;;;4.97;;
75289;SDS011;63883;48.996;20.804;2023-07-13T07:53:06;5.72;;;5.10;;
75289;SDS011;63883;48.996;20.804;2023-07-13T07:55:33;7.90;;;5.20;;
75289;SDS011;63883;48.996;20.804;2023-07-13T07:58:02;5.82;;;5.22;;
75289;SDS011;63883;48.996;20.804;2023-07-13T08:00:28;6.53;;;5.57;;
75289;SDS011;63883;48.996;20.804;2023-07-13T08:02:58;7.80;;;5.93;;
75289;SDS011;63883;48.996;20.804;2023-07-13T08:05:24;5.57;;;5.07;;
75289;SDS011;63883;48.996;20.804;2023-07-13T08:07:51;8.02;;;5.82;;
75289;SDS011;63883;48.996;20.804;2023-07-13T08:10:17;9.98;;;6.68;;
75289;SDS011;63883;48.996;20.804;2023-07-13T08:12:42;8.43;;;6.75;;
75289;SDS011;63883;48.996;20.804;2023-07-13T08:15:12;7.60;;;6.47;;
75289;SDS011;63883;48.996;20.804;2023-07-13T08:17:40;8.25;;;6.75;;
75289;SDS011;63883;48.996;20.804;2023-07-13T08:20:09;8.07;;;6.45;;
75289;SDS011;63883;48.996;20.804;2023-07-13T08:22:35;8.43;;;6.00;;
75289;SDS011;63883;48.996;20.804;2023-07-13T08:25:01;7.50;;;6.28;;
75289;SDS011;63883;48.996;20.804;2023-07-13T08:27:28;7.65;;;6.05;;
75289;SDS011;63883;48.996;20.804;2023-07-13T08:29:54;6.38;;;5.60;;
75289;SDS011;63883;48.996;20.804;2023-07-13T08:32:21;8.63;;;5.07;;
75289;SDS011;63883;48.996;20.804;2023-07-13T08:34:47;6.03;;;5.07;;
75289;SDS011;63883;48.996;20.804;2023-07-13T08:37:13;5.85;;;4.60;;
75289;SDS011;63883;48.996;20.804;2023-07-13T08:39:39;5.55;;;4.47;;
75289;SDS011;63883;48.996;20.804;2023-07-13T08:42:07;5.68;;;4.90;;
75289;SDS011;63883;48.996;20.804;2023-07-13T08:47:46;5.68;;;5.07;;
75289;SDS011;63883;48.996;20.804;2023-07-13T08:50:19;7.20;;;5.07;;
75289;SDS011;63883;48.996;20.804;2023-07-13T08:52:49;5.07;;;4.22;;
75289;SDS011;63883;48.996;20.804;2023-07-13T08:55:17;6.10;;;4.70;;
75289;SDS011;63883;48.996;20.804;2023-07-13T08:57:48;5.68;;;4.35;;
75289;SDS011;63883;48.996;20.804;2023-07-13T09:00:19;5.93;;;5.28;;
75289;SDS011;63883;48.996;20.804;2023-07-13T09:02:46;5.95;;;5.07;;
75289;SDS011;63883;48.996;20.804;2023-07-13T09:05:26;7.60;;;5.47;;
75289;SDS011;63883;48.996;20.804;2023-07-13T09:10:50;6.65;;;5.53;;
75289;SDS011;63883;48.996;20.804;2023-07-13T09:13:48;7.00;;;5.13;;
75289;SDS011;63883;48.996;20.804;2023-07-13T09:16:25;8.02;;;5.70;;
75289;SDS011;63883;48.996;20.804;2023-07-13T09:18:51;8.55;;;6.28;;
75289;SDS011;63883;48.996;20.804;2023-07-13T09:21:34;9.65;;;7.22;;
75289;SDS011;63883;48.996;20.804;2023-07-13T09:26:54;9.70;;;6.72;;
75289;SDS011;63883;48.996;20.804;2023-07-13T09:29:30;8.38;;;6.78;;
75289;SDS011;63883;48.996;20.804;2023-07-13T09:32:04;7.97;;;6.25;;
75289;SDS011;63883;48.996;20.804;2023-07-13T09:34:34;7.63;;;6.55;;
75289;SDS011;63883;48.996;20.804;2023-07-13T09:37:00;8.50;;;6.95;;
75289;SDS011;63883;48.996;20.804;2023-07-13T09:39:27;8.20;;;6.88;;
75289;SDS011;63883;48.996;20.804;2023-07-13T09:41:55;11.05;;;7.38;;
75289;SDS011;63883;48.996;20.804;2023-07-13T09:44:42;8.07;;;7.07;;
75289;SDS011;63883;48.996;20.804;2023-07-13T09:47:20;10.60;;;7.68;;
75289;SDS011;63883;48.996;20.804;2023-07-13T09:49:53;10.52;;;7.72;;
75289;SDS011;63883;48.996;20.804;2023-07-13T09:52:21;8.65;;;7.30;;
75289;SDS011;63883;48.996;20.804;2023-07-13T09:54:48;11.82;;;8.35;;
75289;SDS011;63883;48.996;20.804;2023-07-13T09:57:16;16.52;;;9.43;;
75289;SDS011;63883;48.996;20.804;2023-07-13T09:59:45;17.70;;;9.63;;
75289;SDS011;63883;48.996;20.804;2023-07-13T10:02:34;10.73;;;7.05;;
75289;SDS011;63883;48.996;20.804;2023-07-13T10:05:02;9.43;;;6.53;;
75289;SDS011;63883;48.996;20.804;2023-07-13T10:07:39;8.40;;;6.30;;
75289;SDS011;63883;48.996;20.804;2023-07-13T10:12:46;7.82;;;6.05;;
75289;SDS011;63883;48.996;20.804;2023-07-13T10:15:14;8.88;;;6.40;;
75289;SDS011;63883;48.996;20.804;2023-07-13T10:17:42;7.53;;;6.10;;
75289;SDS011;63883;48.996;20.804;2023-07-13T10:20:09;8.35;;;7.00;;
75289;SDS011;63883;48.996;20.804;2023-07-13T10:25:28;9.70;;;7.47;;
75289;SDS011;63883;48.996;20.804;2023-07-13T10:30:52;11.77;;;8.93;;
75289;SDS011;63883;48.996;20.804;2023-07-13T10:33:20;13.75;;;9.75;;
75289;SDS011;63883;48.996;20.804;2023-07-13T10:35:48;14.15;;;9.57;;
75289;SDS011;63883;48.996;20.804;2023-07-13T10:38:20;13.55;;;9.68;;
75289;SDS011;63883;48.996;20.804;2023-07-13T10:41:00;14.10;;;9.65;;
75289;SDS011;63883;48.996;20.804;2023-07-13T10:43:33;12.95;;;10.18;;
75289;SDS011;63883;48.996;20.804;2023-07-13T10:46:04;15.05;;;10.48;;
75289;SDS011;63883;48.996;20.804;2023-07-13T10:48:33;16.02;;;11.07;;
75289;SDS011;63883;48.996;20.804;2023-07-13T10:51:03;7.57;;;5.97;;
75289;SDS011;63883;48.996;20.804;2023-07-13T10:53:33;7.28;;;5.78;;
75289;SDS011;63883;48.996;20.804;2023-07-13T10:56:01;7.03;;;6.22;;
75289;SDS011;63883;48.996;20.804;2023-07-13T11:03:28;9.40;;;6.90;;
75289;SDS011;63883;48.996;20.804;2023-07-13T11:06:10;11.90;;;7.60;;
75289;SDS011;63883;48.996;20.804;2023-07-13T11:08:50;8.45;;;6.80;;
75289;SDS011;63883;48.996;20.804;2023-07-13T11:18:44;8.13;;;6.80;;
75289;SDS011;63883;48.996;20.804;2023-07-13T11:21:14;9.57;;;6.72;;
75289;SDS011;63883;48.996;20.804;2023-07-13T11:23:42;7.75;;;6.43;;
75289;SDS011;63883;48.996;20.804;2023-07-13T11:29:08;8.82;;;6.72;;
75289;SDS011;63883;48.996;20.804;2023-07-13T11:31:53;8.43;;;7.13;;
75289;SDS011;63883;48.996;20.804;2023-07-13T11:34:31;9.05;;;6.63;;
75289;SDS011;63883;48.996;20.804;2023-07-13T11:37:00;8.63;;;6.53;;
75289;SDS011;63883;48.996;20.804;2023-07-13T11:39:30;9.23;;;6.82;;
75289;SDS011;63883;48.996;20.804;2023-07-13T11:42:04;8.73;;;6.82;;
75289;SDS011;63883;48.996;20.804;2023-07-13T11:44:34;7.93;;;6.63;;
75289;SDS011;63883;48.996;20.804;2023-07-13T11:47:07;8.98;;;6.75;;
75289;SDS011;63883;48.996;20.804;2023-07-13T11:49:43;7.95;;;6.53;;
75289;SDS011;63883;48.996;20.804;2023-07-13T11:52:13;8.60;;;7.45;;
75289;SDS011;63883;48.996;20.804;2023-07-13T11:54:46;8.63;;;6.95;;
75289;SDS011;63883;48.996;20.804;2023-07-13T12:00:11;9.93;;;6.63;;
75289;SDS011;63883;48.996;20.804;2023-07-13T12:02:40;8.30;;;7.05;;
75289;SDS011;63883;48.996;20.804;2023-07-13T12:05:11;9.00;;;6.60;;
75289;SDS011;63883;48.996;20.804;2023-07-13T12:07:39;8.48;;;6.55;;
75289;SDS011;63883;48.996;20.804;2023-07-13T12:12:34;7.90;;;6.20;;
75289;SDS011;63883;48.996;20.804;2023-07-13T12:15:08;7.55;;;5.97;;
75289;SDS011;63883;48.996;20.804;2023-07-13T12:17:37;7.28;;;5.93;;
75289;SDS011;63883;48.996;20.804;2023-07-13T12:20:04;7.18;;;5.95;;
75289;SDS011;63883;48.996;20.804;2023-07-13T12:22:47;5.88;;;5.20;;
75289;SDS011;63883;48.996;20.804;2023-07-13T12:25:15;6.65;;;5.22;;
75289;SDS011;63883;48.996;20.804;2023-07-13T12:30:25;6.38;;;5.05;;
75289;SDS011;63883;48.996;20.804;2023-07-13T12:33:00;6.55;;;5.32;;
75289;SDS011;63883;48.996;20.804;2023-07-13T12:35:30;6.07;;;5.45;;
75289;SDS011;63883;48.996;20.804;2023-07-13T12:37:58;6.68;;;5.60;;
75289;SDS011;63883;48.996;20.804;2023-07-13T12:40:35;8.57;;;5.93;;
75289;SDS011;63883;48.996;20.804;2023-07-13T12:43:01;6.38;;;5.78;;
75289;SDS011;63883;48.996;20.804;2023-07-13T12:50:41;7.25;;;5.30;;
75289;SDS011;63883;48.996;20.804;2023-07-13T12:53:15;6.63;;;5.65;;
75289;SDS011;63883;48.996;20.804;2023-07-13T12:55:49;7.35;;;5.50;;
75289;SDS011;63883;48.996;20.804;2023-07-13T12:58:26;6.28;;;5.18;;
75289;SDS011;63883;48.996;20.804;2023-07-13T13:01:03;7.32;;;5.28;;
75289;SDS011;63883;48.996;20.804;2023-07-13T13:03:40;5.72;;;5.07;;
75289;SDS011;63883;48.996;20.804;2023-07-13T13:06:20;6.13;;;5.50;;
75289;SDS011;63883;48.996;20.804;2023-07-13T13:08:48;6.65;;;5.82;;
75289;SDS011;63883;48.996;20.804;2023-07-13T13:11:19;7.07;;;6.35;;
75289;SDS011;63883;48.996;20.804;2023-07-13T13:13:46;6.90;;;5.90;;
75289;SDS011;63883;48.996;20.804;2023-07-13T13:16:14;7.15;;;5.30;;
75289;SDS011;63883;48.996;20.804;2023-07-13T13:18:43;6.65;;;4.60;;
75289;SDS011;63883;48.996;20.804;2023-07-13T13:21:12;3.70;;;3.15;;
75289;SDS011;63883;48.996;20.804;2023-07-13T13:23:37;4.03;;;2.10;;
75289;SDS011;63883;48.996;20.804;2023-07-13T13:26:04;2.50;;;2.30;;
75289;SDS011;63883;48.996;20.804;2023-07-13T13:28:34;2.65;;;2.30;;
75289;SDS011;63883;48.996;20.804;2023-07-13T13:31:00;2.60;;;2.40;;
75289;SDS011;63883;48.996;20.804;2023-07-13T13:33:25;2.50;;;2.30;;
75289;SDS011;63883;48.996;20.804;2023-07-13T13:35:51;3.33;;;2.30;;
75289;SDS011;63883;48.996;20.804;2023-07-13T13:38:18;3.33;;;2.60;;
75289;SDS011;63883;48.996;20.804;2023-07-13T13:40:47;3.85;;;2.50;;
75289;SDS011;63883;48.996;20.804;2023-07-13T13:43:23;3.92;;;2.80;;
75289;SDS011;63883;48.996;20.804;2023-07-13T13:45:57;3.10;;;2.72;;
75289;SDS011;63883;48.996;20.804;2023-07-13T13:50:58;4.47;;;2.90;;
75289;SDS011;63883;48.996;20.804;2023-07-13T13:53:25;3.25;;;2.50;;
75289;SDS011;63883;48.996;20.804;2023-07-13T13:55:51;3.35;;;2.28;;
75289;SDS011;63883;48.996;20.804;2023-07-13T13:58:20;2.40;;;2.20;;
75289;SDS011;63883;48.996;20.804;2023-07-13T14:00:47;2.47;;;2.10;;
75289;SDS011;63883;48.996;20.804;2023-07-13T14:03:14;2.50;;;2.30;;
75289;SDS011;63883;48.996;20.804;2023-07-13T14:05:42;2.90;;;2.22;;
75289;SDS011;63883;48.996;20.804;2023-07-13T14:08:11;2.53;;;2.20;;
75289;SDS011;63883;48.996;20.804;2023-07-13T14:10:40;2.70;;;2.33;;
75289;SDS011;63883;48.996;20.804;2023-07-13T14:13:07;3.10;;;2.28;;
75289;SDS011;63883;48.996;20.804;2023-07-13T14:15:44;3.70;;;2.60;;
75289;SDS011;63883;48.996;20.804;2023-07-13T14:18:10;3.72;;;2.50;;
75289;SDS011;63883;48.996;20.804;2023-07-13T14:20:37;2.90;;;2.30;;
75289;SDS011;63883;48.996;20.804;2023-07-13T14:23:02;3.70;;;2.20;;
75289;SDS011;63883;48.996;20.804;2023-07-13T14:25:28;2.95;;;2.00;;
75289;SDS011;63883;48.996;20.804;2023-07-13T14:27:58;1.92;;;1.77;;
75289;SDS011;63883;48.996;20.804;2023-07-13T14:30:26;1.98;;;1.85;;
75289;SDS011;63883;48.996;20.804;2023-07-13T14:32:51;2.47;;;1.85;;
75289;SDS011;63883;48.996;20.804;2023-07-13T14:35:20;2.25;;;1.70;;
75289;SDS011;63883;48.996;20.804;2023-07-13T14:37:48;1.95;;;1.60;;
75289;SDS011;63883;48.996;20.804;2023-07-13T14:40:15;1.85;;;1.70;;
75289;SDS011;63883;48.996;20.804;2023-07-13T14:47:40;1.90;;;1.80;;
75289;SDS011;63883;48.996;20.804;2023-07-13T14:50:21;1.88;;;1.50;;
75289;SDS011;63883;48.996;20.804;2023-07-13T14:52:51;1.80;;;1.70;;
75289;SDS011;63883;48.996;20.804;2023-07-13T14:55:18;1.88;;;1.60;;
75289;SDS011;63883;48.996;20.804;2023-07-13T14:57:44;2.47;;;1.70;;
75289;SDS011;63883;48.996;20.804;2023-07-13T15:00:14;1.67;;;1.58;;
75289;SDS011;63883;48.996;20.804;2023-07-13T15:02:42;1.70;;;1.60;;
75289;SDS011;63883;48.996;20.804;2023-07-13T15:05:15;1.60;;;1.50;;
75289;SDS011;63883;48.996;20.804;2023-07-13T15:07:42;1.60;;;1.50;;
75289;SDS011;63883;48.996;20.804;2023-07-13T15:12:40;2.15;;;1.45;;
75289;SDS011;63883;48.996;20.804;2023-07-13T15:15:06;3.95;;;1.50;;
75289;SDS011;63883;48.996;20.804;2023-07-13T15:17:36;1.40;;;1.30;;
75289;SDS011;63883;48.996;20.804;2023-07-13T15:20:29;1.20;;;1.17;;
75289;SDS011;63883;48.996;20.804;2023-07-13T15:23:00;1.30;;;1.20;;
75289;SDS011;63883;48.996;20.804;2023-07-13T15:25:27;1.10;;;1.10;;
75289;SDS011;63883;48.996;20.804;2023-07-13T15:27:56;1.20;;;1.20;;
75289;SDS011;63883;48.996;20.804;2023-07-13T15:30:25;2.05;;;1.20;;
75289;SDS011;63883;48.996;20.804;2023-07-13T15:32:54;1.30;;;1.20;;